Time;durP1;ratioP1;P1;durP2;ratioP2;P2;SDS_P1;SDS_P2;PMS_P1;PMS_P2;Temp;Humidity;BMP_temperature;BMP_pressure;BME280_temperature;BME280_humidity;BME280_pressure;Samples;Min_cycle;Max_cycle;Signal;HPM_P1;HPM_P2
2022/05/21 00:00:41;;;;;;;3.93;1.53;;;;;;;;;;5053805;28;20421;-53
2022/05/21 00:03:09;;;;;;;4.10;1.85;;;;;;;;;;5036085;28;20680;-56
2022/05/21 00:05:35;;;;;;;4.22;1.65;;;;;;;;;;5035640;28;21069;-55
2022/05/21 00:08:02;;;;;;;5.47;1.73;;;;;;;;;;5035872;28;20401;-54
2022/05/21 00:10:29;;;;;;;4.60;1.70;;;;;;;;;;5031546;28;20400;-56
2022/05/21 00:12:55;;;;;;;6.13;1.88;;;;;;;;;;5029969;28;20405;-55
2022/05/21 00:15:22;;;;;;;7.95;2.03;;;;;;;;;;5030840;28;20416;-55
2022/05/21 00:17:49;;;;;;;4.93;1.73;;;;;;;;;;5048636;28;20389;-54
2022/05/21 00:22:59;;;;;;;9.68;2.38;;;;;;;;;;5048501;28;20552;-56
2022/05/21 00:25:26;;;;;;;8.68;2.10;;;;;;;;;;5048748;28;20393;-57
2022/05/21 00:27:52;;;;;;;6.78;2.10;;;;;;;;;;5031153;28;20428;-56
2022/05/21 00:30:18;;;;;;;6.22;2.00;;;;;;;;;;5033636;28;20765;-52
2022/05/21 00:32:44;;;;;;;5.65;2.25;;;;;;;;;;5034577;28;20417;-54
2022/05/21 00:35:10;;;;;;;4.25;2.10;;;;;;;;;;5051684;28;20393;-56
2022/05/21 00:37:36;;;;;;;5.07;2.10;;;;;;;;;;5032603;28;20459;-53
2022/05/21 00:40:02;;;;;;;6.38;2.33;;;;;;;;;;5032178;28;20716;-55
2022/05/21 00:42:29;;;;;;;6.10;2.57;;;;;;;;;;5032244;28;20386;-55
2022/05/21 00:44:55;;;;;;;7.90;2.80;;;;;;;;;;5031666;28;20839;-53
2022/05/21 00:47:21;;;;;;;5.80;2.27;;;;;;;;;;5031016;28;20876;-55
2022/05/21 00:49:48;;;;;;;4.35;2.20;;;;;;;;;;5030611;28;20412;-52
2022/05/21 00:52:20;;;;;;;7.40;2.00;;;;;;;;;;5048408;28;20472;-55
2022/05/21 00:54:51;;;;;;;7.10;2.50;;;;;;;;;;5030302;28;20423;-54
2022/05/21 00:57:19;;;;;;;6.90;2.63;;;;;;;;;;5034218;28;20413;-53
2022/05/21 00:59:51;;;;;;;6.33;2.70;;;;;;;;;;5035838;28;20454;-54
2022/05/21 01:02:20;;;;;;;7.57;2.80;;;;;;;;;;5036945;28;20798;-55
2022/05/21 01:04:46;;;;;;;7.53;2.53;;;;;;;;;;5037305;28;20794;-54
2022/05/21 01:07:15;;;;;;;6.82;2.67;;;;;;;;;;5035991;28;20391;-53
2022/05/21 01:09:44;;;;;;;6.38;2.35;;;;;;;;;;5034133;28;20470;-56
2022/05/21 01:12:10;;;;;;;7.47;2.75;;;;;;;;;;5035096;28;20383;-55
2022/05/21 01:14:37;;;;;;;6.30;2.70;;;;;;;;;;5036606;28;20754;-56
2022/05/21 01:17:03;;;;;;;6.47;2.63;;;;;;;;;;5034545;28;20394;-53
2022/05/21 01:19:29;;;;;;;6.10;2.60;;;;;;;;;;5034885;28;20468;-54
2022/05/21 01:21:56;;;;;;;9.30;2.77;;;;;;;;;;5034812;28;20738;-56
2022/05/21 01:24:22;;;;;;;4.95;2.55;;;;;;;;;;5033814;28;20389;-55
2022/05/21 01:26:48;;;;;;;5.63;2.60;;;;;;;;;;5033506;28;20383;-56
2022/05/21 01:29:19;;;;;;;7.70;2.50;;;;;;;;;;5034678;28;20433;-53
2022/05/21 01:31:50;;;;;;;7.28;2.70;;;;;;;;;;5032871;28;20709;-54
2022/05/21 01:34:16;;;;;;;7.50;2.80;;;;;;;;;;5030733;28;20418;-56
2022/05/21 01:36:42;;;;;;;6.60;2.90;;;;;;;;;;5030776;28;20503;-56
2022/05/21 01:39:08;;;;;;;5.85;2.45;;;;;;;;;;5031940;28;20706;-56
2022/05/21 01:41:34;;;;;;;6.00;2.53;;;;;;;;;;5029971;28;20391;-56
2022/05/21 01:46:44;;;;;;;4.10;2.08;;;;;;;;;;5033843;28;20390;-55
2022/05/21 01:49:10;;;;;;;5.67;2.47;;;;;;;;;;5031591;28;20402;-56
2022/05/21 01:51:36;;;;;;;5.00;2.60;;;;;;;;;;5033657;28;20730;-56
2022/05/21 01:54:02;;;;;;;5.75;2.30;;;;;;;;;;5033621;28;20703;-57
2022/05/21 01:56:28;;;;;;;5.38;2.33;;;;;;;;;;5051918;28;20848;-57
2022/05/21 01:58:55;;;;;;;6.25;2.58;;;;;;;;;;5035598;28;20468;-54
2022/05/21 02:01:21;;;;;;;4.10;2.25;;;;;;;;;;5032324;28;20740;-57
2022/05/21 02:03:49;;;;;;;6.63;2.37;;;;;;;;;;5049737;28;21194;-54
2022/05/21 02:06:15;;;;;;;6.43;2.53;;;;;;;;;;5033095;28;20408;-54
2022/05/21 02:08:41;;;;;;;7.17;2.33;;;;;;;;;;5031569;28;20397;-56
2022/05/21 02:11:08;;;;;;;5.50;2.40;;;;;;;;;;5030405;28;20488;-55
2022/05/21 02:13:35;;;;;;;5.50;2.63;;;;;;;;;;5033415;28;20409;-55
2022/05/21 02:16:01;;;;;;;5.32;2.60;;;;;;;;;;5034651;28;20398;-54
2022/05/21 02:18:27;;;;;;;4.20;2.40;;;;;;;;;;5033694;28;20386;-55
2022/05/21 02:20:54;;;;;;;6.70;2.70;;;;;;;;;;5033582;28;20663;-57
2022/05/21 02:23:20;;;;;;;5.10;2.77;;;;;;;;;;5033992;28;20462;-54
2022/05/21 02:25:47;;;;;;;4.90;2.85;;;;;;;;;;5052886;28;20389;-52
2022/05/21 02:28:13;;;;;;;5.63;3.20;;;;;;;;;;5032807;28;20396;-57
2022/05/21 02:30:39;;;;;;;5.67;3.30;;;;;;;;;;5034299;28;20414;-56
2022/05/21 02:33:05;;;;;;;8.13;3.20;;;;;;;;;;5053170;28;20823;-53
2022/05/21 02:35:31;;;;;;;5.63;3.03;;;;;;;;;;5055114;28;20397;-55
2022/05/21 02:40:42;;;;;;;6.20;2.80;;;;;;;;;;5054037;28;20369;-55
2022/05/21 02:43:08;;;;;;;4.32;2.35;;;;;;;;;;5036267;28;20389;-52
2022/05/21 02:45:34;;;;;;;5.55;2.67;;;;;;;;;;5034949;28;20400;-52
2022/05/21 02:48:00;;;;;;;5.13;2.57;;;;;;;;;;5053926;28;20615;-54
2022/05/21 02:50:32;;;;;;;6.00;2.38;;;;;;;;;;5055155;28;20403;-56
2022/05/21 02:52:58;;;;;;;3.90;2.30;;;;;;;;;;5036156;28;20432;-52
2022/05/21 02:55:24;;;;;;;5.20;2.13;;;;;;;;;;5035813;28;20421;-56
2022/05/21 02:57:50;;;;;;;6.10;2.80;;;;;;;;;;5035755;28;20401;-56
2022/05/21 03:00:21;;;;;;;6.75;2.40;;;;;;;;;;5033797;28;20380;-57
2022/05/21 03:02:47;;;;;;;6.47;2.60;;;;;;;;;;5034125;28;20419;-55
2022/05/21 03:05:13;;;;;;;8.13;2.88;;;;;;;;;;5049840;28;20818;-55
2022/05/21 03:07:40;;;;;;;4.40;2.65;;;;;;;;;;5033855;28;20463;-56
2022/05/21 03:10:22;;;;;;;6.82;3.10;;;;;;;;;;5033013;28;20396;-55
2022/05/21 03:12:51;;;;;;;4.45;2.80;;;;;;;;;;5032317;28;20488;-56
2022/05/21 03:15:17;;;;;;;3.25;2.55;;;;;;;;;;5051067;28;20693;-51
2022/05/21 03:17:43;;;;;;;5.20;2.95;;;;;;;;;;5033589;28;20424;-53
2022/05/21 03:20:13;;;;;;;4.53;2.85;;;;;;;;;;5035313;28;21018;-53
2022/05/21 03:22:39;;;;;;;5.73;2.70;;;;;;;;;;5051050;28;20786;-54
2022/05/21 03:25:05;;;;;;;3.80;2.57;;;;;;;;;;5050840;28;20557;-54
2022/05/21 03:27:31;;;;;;;5.40;2.65;;;;;;;;;;5034211;28;20381;-56
2022/05/21 03:29:57;;;;;;;4.20;2.80;;;;;;;;;;5035067;28;20396;-55
2022/05/21 03:32:23;;;;;;;3.95;2.22;;;;;;;;;;5053203;28;20408;-55
2022/05/21 03:34:49;;;;;;;6.88;2.95;;;;;;;;;;5034350;28;20402;-53
2022/05/21 03:37:14;;;;;;;4.90;2.42;;;;;;;;;;5036099;28;20484;-56
2022/05/21 03:39:40;;;;;;;5.80;2.53;;;;;;;;;;5035479;28;20785;-56
2022/05/21 03:45:11;;;;;;;6.38;2.90;;;;;;;;;;5055697;28;20369;-55
2022/05/21 03:47:38;;;;;;;5.78;2.85;;;;;;;;;;5034441;28;20386;-55
2022/05/21 03:50:04;;;;;;;4.60;2.72;;;;;;;;;;5051656;28;20762;-55
2022/05/21 03:52:30;;;;;;;6.47;2.83;;;;;;;;;;5035288;28;20405;-56
2022/05/21 03:54:56;;;;;;;6.32;2.70;;;;;;;;;;5052247;28;20428;-54
2022/05/21 03:57:22;;;;;;;6.55;3.10;;;;;;;;;;5053624;28;20381;-55
2022/05/21 03:59:48;;;;;;;5.82;2.38;;;;;;;;;;5054529;28;20386;-53
2022/05/21 04:02:14;;;;;;;3.80;2.33;;;;;;;;;;5036020;28;20483;-55
2022/05/21 04:04:45;;;;;;;4.80;2.38;;;;;;;;;;5053886;28;20429;-54
2022/05/21 04:07:11;;;;;;;3.80;2.33;;;;;;;;;;5035269;28;20370;-55
2022/05/21 04:09:37;;;;;;;5.60;2.58;;;;;;;;;;5034679;28;20386;-56
2022/05/21 04:12:04;;;;;;;4.40;2.88;;;;;;;;;;5033693;28;20597;-54
2022/05/21 04:14:30;;;;;;;3.63;2.65;;;;;;;;;;5036913;28;20447;-55
2022/05/21 04:16:57;;;;;;;6.72;2.90;;;;;;;;;;5036373;28;20461;-53
2022/05/21 04:19:49;;;;;;;6.22;3.30;;;;;;;;;;5036497;28;20404;-56
2022/05/21 04:22:14;;;;;;;5.72;3.50;;;;;;;;;;5053736;28;20484;-56
2022/05/21 04:24:41;;;;;;;4.63;3.58;;;;;;;;;;5053110;28;20587;-55
2022/05/21 04:27:09;;;;;;;5.40;3.92;;;;;;;;;;5035710;28;20385;-55
2022/05/21 04:29:36;;;;;;;6.15;3.92;;;;;;;;;;5051355;28;20412;-55
2022/05/21 04:32:02;;;;;;;6.13;3.92;;;;;;;;;;5033660;28;20403;-51
2022/05/21 04:34:28;;;;;;;8.23;4.63;;;;;;;;;;5028649;28;20413;-56
2022/05/21 04:36:54;;;;;;;8.63;4.88;;;;;;;;;;5027987;28;20396;-56
2022/05/21 04:39:20;;;;;;;7.18;5.90;;;;;;;;;;5027962;28;20696;-55
2022/05/21 04:41:46;;;;;;;11.40;6.65;;;;;;;;;;5047265;28;20482;-56
2022/05/21 04:44:12;;;;;;;10.82;7.20;;;;;;;;;;5029833;28;20392;-55
2022/05/21 04:46:38;;;;;;;9.07;6.80;;;;;;;;;;5045032;28;20385;-54
2022/05/21 04:49:04;;;;;;;12.13;7.33;;;;;;;;;;5027980;28;20424;-55
2022/05/21 04:51:31;;;;;;;10.88;8.27;;;;;;;;;;5046032;28;20757;-54
2022/05/21 04:53:57;;;;;;;11.95;8.60;;;;;;;;;;5028171;28;20405;-57
2022/05/21 04:56:23;;;;;;;11.65;8.88;;;;;;;;;;5029397;28;20490;-55
2022/05/21 04:58:49;;;;;;;13.02;10.35;;;;;;;;;;5028579;28;20378;-57
2022/05/21 05:01:15;;;;;;;13.10;10.50;;;;;;;;;;5025306;28;20393;-54
2022/05/21 05:03:41;;;;;;;12.55;11.18;;;;;;;;;;5044725;28;20409;-54
2022/05/21 05:06:08;;;;;;;12.90;11.43;;;;;;;;;;5026931;28;20481;-53
2022/05/21 05:08:34;;;;;;;13.60;12.17;;;;;;;;;;5042921;28;20443;-56
2022/05/21 05:11:00;;;;;;;12.80;11.37;;;;;;;;;;5025203;28;20385;-54
2022/05/21 05:13:26;;;;;;;14.77;12.33;;;;;;;;;;5025268;28;20479;-51
2022/05/21 05:15:52;;;;;;;14.93;12.33;;;;;;;;;;5043946;28;20384;-52
2022/05/21 05:18:21;;;;;;;13.67;12.27;;;;;;;;;;5026883;28;20447;-55
2022/05/21 05:20:48;;;;;;;15.05;12.68;;;;;;;;;;5027179;28;20456;-53
2022/05/21 05:23:14;;;;;;;14.80;12.43;;;;;;;;;;5026713;28;20385;-54
2022/05/21 05:25:40;;;;;;;14.43;12.43;;;;;;;;;;5045066;28;20874;-54
2022/05/21 05:28:13;;;;;;;15.82;13.05;;;;;;;;;;5047442;28;20677;-57
2022/05/21 05:30:39;;;;;;;18.48;13.35;;;;;;;;;;5047242;28;20458;-52
2022/05/21 05:33:05;;;;;;;16.02;13.10;;;;;;;;;;5049275;28;20421;-54
2022/05/21 05:35:31;;;;;;;18.67;13.70;;;;;;;;;;5029848;28;20409;-52
2022/05/21 05:37:57;;;;;;;16.77;14.52;;;;;;;;;;5048571;28;20619;-53
2022/05/21 05:40:23;;;;;;;19.55;14.95;;;;;;;;;;5033101;28;20377;-53
2022/05/21 05:42:49;;;;;;;20.90;15.75;;;;;;;;;;5034678;28;20381;-55
2022/05/21 05:45:16;;;;;;;20.00;15.35;;;;;;;;;;5051511;28;20392;-56
2022/05/21 05:47:42;;;;;;;21.00;15.60;;;;;;;;;;5033581;28;20393;-55
2022/05/21 05:50:08;;;;;;;18.00;15.00;;;;;;;;;;5033945;28;20409;-51
2022/05/21 05:52:34;;;;;;;16.40;14.52;;;;;;;;;;5050993;28;20413;-55
2022/05/21 05:55:00;;;;;;;18.20;14.40;;;;;;;;;;5033440;28;20421;-56
2022/05/21 05:57:26;;;;;;;18.27;14.80;;;;;;;;;;5032774;28;20393;-56
2022/05/21 05:59:52;;;;;;;18.67;15.63;;;;;;;;;;5032914;28;20412;-55
2022/05/21 06:05:05;;;;;;;19.70;16.50;;;;;;;;;;5053981;28;20385;-54
2022/05/21 06:07:32;;;;;;;19.33;16.92;;;;;;;;;;5047915;28;20389;-56
2022/05/21 06:10:02;;;;;;;19.73;16.30;;;;;;;;;;5028504;28;20381;-55
2022/05/21 06:12:28;;;;;;;19.17;17.15;;;;;;;;;;5027065;28;20476;-56
2022/05/21 06:14:54;;;;;;;20.70;17.13;;;;;;;;;;5044244;28;20766;-55
2022/05/21 06:17:20;;;;;;;20.40;18.08;;;;;;;;;;5026761;28;20431;-57
2022/05/21 06:19:46;;;;;;;18.75;16.85;;;;;;;;;;5020711;28;20423;-55
2022/05/21 06:22:12;;;;;;;21.10;18.13;;;;;;;;;;5014675;28;20391;-56
2022/05/21 06:24:38;;;;;;;21.30;18.48;;;;;;;;;;5023250;28;20403;-56
2022/05/21 06:27:05;;;;;;;20.48;18.30;;;;;;;;;;5006915;28;20718;-55
2022/05/21 06:29:31;;;;;;;21.88;18.92;;;;;;;;;;5007738;28;20399;-55
2022/05/21 06:31:57;;;;;;;21.35;19.08;;;;;;;;;;5008582;28;20380;-56
2022/05/21 06:34:23;;;;;;;22.80;20.27;;;;;;;;;;5008293;28;20411;-55
2022/05/21 06:36:49;;;;;;;22.58;19.33;;;;;;;;;;5009267;28;20392;-56
2022/05/21 06:39:16;;;;;;;22.33;19.20;;;;;;;;;;5008876;28;20395;-54
2022/05/21 06:41:42;;;;;;;23.02;20.02;;;;;;;;;;5026669;28;20790;-55
2022/05/21 06:44:09;;;;;;;25.88;20.60;;;;;;;;;;5008455;28;20394;-52
2022/05/21 06:46:36;;;;;;;23.13;20.65;;;;;;;;;;5007760;28;20436;-56
2022/05/21 06:49:02;;;;;;;21.52;19.25;;;;;;;;;;5005859;28;20415;-54
2022/05/21 06:51:28;;;;;;;25.63;19.95;;;;;;;;;;5005760;28;20398;-54
2022/05/21 06:53:54;;;;;;;22.57;18.70;;;;;;;;;;5006004;28;20399;-55
2022/05/21 06:56:20;;;;;;;20.27;18.00;;;;;;;;;;5003656;28;20570;-52
2022/05/21 06:58:46;;;;;;;22.77;19.10;;;;;;;;;;5004499;28;20395;-55
2022/05/21 07:01:12;;;;;;;22.53;20.10;;;;;;;;;;5004872;28;20394;-55
2022/05/21 07:03:38;;;;;;;23.73;18.33;;;;;;;;;;5004376;28;20438;-55
2022/05/21 07:08:49;;;;;;;23.13;18.20;;;;;;;;;;5022429;28;20386;-55
2022/05/21 07:11:15;;;;;;;20.23;17.80;;;;;;;;;;5002066;28;20379;-54
2022/05/21 07:13:41;;;;;;;24.33;17.83;;;;;;;;;;5019657;28;20418;-54
2022/05/21 07:16:07;;;;;;;21.95;16.92;;;;;;;;;;5019270;28;20375;-56
2022/05/21 07:18:33;;;;;;;20.63;17.13;;;;;;;;;;5021837;28;20379;-53
2022/05/21 07:20:59;;;;;;;19.20;16.25;;;;;;;;;;5005237;28;20375;-55
2022/05/21 07:23:27;;;;;;;20.57;17.17;;;;;;;;;;5006285;28;20452;-56
2022/05/21 07:25:53;;;;;;;20.15;15.77;;;;;;;;;;5026006;28;20379;-57
2022/05/21 07:28:19;;;;;;;22.20;15.50;;;;;;;;;;5024558;28;20829;-56
2022/05/21 07:30:46;;;;;;;19.30;14.75;;;;;;;;;;5006575;28;20393;-56
2022/05/21 07:33:13;;;;;;;17.70;15.38;;;;;;;;;;5005898;28;20473;-55
2022/05/21 07:35:39;;;;;;;18.13;14.83;;;;;;;;;;5025651;28;20475;-58
2022/05/21 07:38:06;;;;;;;19.02;15.00;;;;;;;;;;5024286;28;20388;-51
2022/05/21 07:40:31;;;;;;;19.17;14.73;;;;;;;;;;5025167;28;20741;-54
2022/05/21 07:42:57;;;;;;;19.00;14.07;;;;;;;;;;5007116;28;20394;-57
2022/05/21 07:45:23;;;;;;;20.43;14.77;;;;;;;;;;5008194;28;20841;-55
2022/05/21 07:47:49;;;;;;;20.90;14.27;;;;;;;;;;5031027;28;20990;-56
2022/05/21 07:50:15;;;;;;;17.40;13.20;;;;;;;;;;5013763;28;20407;-58
2022/05/21 07:52:43;;;;;;;18.42;13.35;;;;;;;;;;5026115;28;20407;-57
2022/05/21 07:55:09;;;;;;;16.80;12.90;;;;;;;;;;5024554;28;20502;-54
2022/05/21 07:57:35;;;;;;;17.30;12.65;;;;;;;;;;5024957;28;20387;-54
2022/05/21 08:00:07;;;;;;;22.65;12.93;;;;;;;;;;5022711;28;20379;-54
2022/05/21 08:02:33;;;;;;;18.17;11.80;;;;;;;;;;5027576;28;20385;-56
2022/05/21 08:05:00;;;;;;;17.57;11.13;;;;;;;;;;5045576;28;20424;-57
2022/05/21 08:07:26;;;;;;;15.27;10.77;;;;;;;;;;5026069;28;20620;-55
2022/05/21 08:09:52;;;;;;;13.65;9.93;;;;;;;;;;5021193;28;20439;-53
2022/05/21 08:12:18;;;;;;;14.57;9.70;;;;;;;;;;5022233;28;20497;-57
2022/05/21 08:14:44;;;;;;;14.13;9.77;;;;;;;;;;5021301;28;20401;-54
2022/05/21 08:17:11;;;;;;;14.38;9.40;;;;;;;;;;5021215;28;20389;-55
2022/05/21 08:19:37;;;;;;;14.68;9.45;;;;;;;;;;5041873;28;20720;-58
2022/05/21 08:27:32;;;;;;;15.35;9.70;;;;;;;;;;5042014;28;20723;-59
2022/05/21 08:29:58;;;;;;;15.52;10.60;;;;;;;;;;5022735;28;20488;-57
2022/05/21 08:32:24;;;;;;;18.35;10.93;;;;;;;;;;5024928;28;20425;-59
2022/05/21 08:34:52;;;;;;;13.38;9.70;;;;;;;;;;5025806;28;20393;-57
2022/05/21 08:37:18;;;;;;;12.95;8.73;;;;;;;;;;5023317;28;20705;-55
2022/05/21 08:39:45;;;;;;;11.43;6.70;;;;;;;;;;5043024;28;20677;-56
2022/05/21 08:42:14;;;;;;;8.48;5.20;;;;;;;;;;5027024;28;20451;-58
2022/05/21 08:44:45;;;;;;;9.63;5.38;;;;;;;;;;5046193;28;20390;-58
2022/05/21 08:47:20;;;;;;;8.52;4.57;;;;;;;;;;5025529;28;20394;-56
2022/05/21 08:49:46;;;;;;;9.70;4.60;;;;;;;;;;5026773;28;20393;-56
2022/05/21 08:52:21;;;;;;;7.82;4.18;;;;;;;;;;5028369;28;20404;-54
2022/05/21 08:54:49;;;;;;;6.60;3.45;;;;;;;;;;5044321;28;20397;-56
2022/05/21 08:57:18;;;;;;;7.75;3.33;;;;;;;;;;5025698;28;20682;-58
2022/05/21 08:59:47;;;;;;;7.63;2.93;;;;;;;;;;5025044;28;20382;-58
2022/05/21 09:02:18;;;;;;;4.30;2.17;;;;;;;;;;5023298;28;20471;-58
2022/05/21 09:04:44;;;;;;;4.47;2.20;;;;;;;;;;5025612;28;20908;-56
2022/05/21 09:07:17;;;;;;;5.50;2.10;;;;;;;;;;5044302;28;20455;-55
2022/05/21 09:10:05;;;;;;;4.55;1.80;;;;;;;;;;5026930;28;20390;-56
2022/05/21 09:12:37;;;;;;;4.72;2.17;;;;;;;;;;5028969;28;20989;-56
2022/05/21 09:15:04;;;;;;;3.73;2.00;;;;;;;;;;5032361;28;20409;-56
2022/05/21 09:17:30;;;;;;;4.68;2.03;;;;;;;;;;5055542;28;20389;-57
2022/05/21 09:20:02;;;;;;;4.43;1.98;;;;;;;;;;5037594;28;20481;-57
2022/05/21 09:22:28;;;;;;;2.90;1.77;;;;;;;;;;5036738;28;20381;-55
2022/05/21 09:24:55;;;;;;;5.63;2.30;;;;;;;;;;5036455;28;20390;-56
2022/05/21 09:27:23;;;;;;;5.60;2.08;;;;;;;;;;5035894;28;20452;-54
2022/05/21 09:29:51;;;;;;;8.57;2.22;;;;;;;;;;5033532;28;20381;-56
2022/05/21 09:32:19;;;;;;;6.65;1.88;;;;;;;;;;5033638;28;20496;-56
2022/05/21 09:34:45;;;;;;;6.82;2.10;;;;;;;;;;5034045;28;20397;-54
2022/05/21 09:37:16;;;;;;;9.13;2.50;;;;;;;;;;5035131;28;20412;-61
2022/05/21 09:39:43;;;;;;;9.25;2.30;;;;;;;;;;5034721;28;20385;-61
2022/05/21 09:45:27;;;;;;;7.05;2.33;;;;;;;;;;5050526;28;20361;-61
2022/05/21 09:47:54;;;;;;;8.32;2.38;;;;;;;;;;5033070;28;20918;-61
2022/05/21 09:50:26;;;;;;;8.70;2.70;;;;;;;;;;5015556;28;20479;-61
2022/05/21 09:52:52;;;;;;;4.13;1.47;;;;;;;;;;5030855;28;20424;-61
2022/05/21 09:55:39;;;;;;;5.75;1.60;;;;;;;;;;5037625;28;20409;-60
2022/05/21 09:58:14;;;;;;;5.63;1.58;;;;;;;;;;5035494;28;21048;-60
2022/05/21 10:00:41;;;;;;;6.32;1.90;;;;;;;;;;5035279;28;20374;-60
2022/05/21 10:03:10;;;;;;;7.28;1.75;;;;;;;;;;5035937;28;20381;-59
2022/05/21 10:05:47;;;;;;;5.82;1.65;;;;;;;;;;5052183;28;20480;-60
2022/05/21 10:11:23;;;;;;;4.55;1.58;;;;;;;;;;5052149;28;20427;-54
2022/05/21 10:13:51;;;;;;;6.68;1.80;;;;;;;;;;5035970;28;21077;-57
2022/05/21 10:16:29;;;;;;;7.15;1.70;;;;;;;;;;5033973;28;20377;-55
2022/05/21 10:19:07;;;;;;;5.63;1.75;;;;;;;;;;5036367;28;20422;-57
2022/05/21 10:21:53;;;;;;;4.88;1.70;;;;;;;;;;5037572;28;20389;-53
2022/05/21 10:24:23;;;;;;;9.25;2.20;;;;;;;;;;5037526;28;20425;-56
2022/05/21 10:26:59;;;;;;;6.10;1.90;;;;;;;;;;5035591;28;20421;-57
2022/05/21 10:29:50;;;;;;;7.27;1.97;;;;;;;;;;5036505;28;20477;-56
2022/05/21 10:32:23;;;;;;;6.40;2.13;;;;;;;;;;5053192;28;20385;-54
2022/05/21 10:34:52;;;;;;;7.28;1.77;;;;;;;;;;5035597;28;20429;-56
2022/05/21 10:37:21;;;;;;;8.88;1.85;;;;;;;;;;5051572;28;20480;-55
2022/05/21 10:39:56;;;;;;;6.68;1.95;;;;;;;;;;5053160;28;20377;-53
2022/05/21 10:42:49;;;;;;;5.38;1.92;;;;;;;;;;5036454;28;20441;-52
2022/05/21 10:45:21;;;;;;;7.30;2.10;;;;;;;;;;5053857;28;20377;-57
2022/05/21 10:47:48;;;;;;;5.53;1.75;;;;;;;;;;5035706;28;20827;-55
2022/05/21 10:50:17;;;;;;;6.68;2.03;;;;;;;;;;5052351;28;20507;-57
2022/05/21 10:53:02;;;;;;;6.60;2.00;;;;;;;;;;5034885;28;20425;-56
2022/05/21 10:55:57;;;;;;;5.70;2.00;;;;;;;;;;5029727;28;20922;-56
2022/05/21 10:58:31;;;;;;;7.57;2.20;;;;;;;;;;5012210;28;20386;-56
2022/05/21 11:01:05;;;;;;;4.75;1.70;;;;;;;;;;5028931;28;20917;-56
2022/05/21 11:03:39;;;;;;;5.38;2.00;;;;;;;;;;5031720;28;20481;-58
2022/05/21 11:06:11;;;;;;;7.40;2.23;;;;;;;;;;5029607;28;20467;-57
2022/05/21 11:08:49;;;;;;;7.33;2.03;;;;;;;;;;5029803;28;21006;-57
2022/05/21 11:11:21;;;;;;;8.05;2.00;;;;;;;;;;5028766;28;20571;-57
2022/05/21 11:13:57;;;;;;;6.57;1.85;;;;;;;;;;5029050;28;20413;-55
2022/05/21 11:16:36;;;;;;;6.35;2.30;;;;;;;;;;5027895;28;20392;-55
2022/05/21 11:19:06;;;;;;;6.45;1.58;;;;;;;;;;5027860;28;20383;-56
2022/05/21 11:21:37;;;;;;;9.43;2.10;;;;;;;;;;5028674;28;20463;-56
2022/05/21 11:24:10;;;;;;;7.87;1.70;;;;;;;;;;5028005;28;20919;-55
2022/05/21 11:26:55;;;;;;;7.43;1.70;;;;;;;;;;5028162;28;20403;-57
2022/05/21 11:29:33;;;;;;;8.18;1.77;;;;;;;;;;5028615;28;20425;-56
2022/05/21 11:37:43;;;;;;;6.78;1.65;;;;;;;;;;5028859;28;20445;-55
2022/05/21 11:40:36;;;;;;;5.53;1.75;;;;;;;;;;5029210;28;20485;-55
2022/05/21 11:43:03;;;;;;;8.53;1.80;;;;;;;;;;4997599;28;20879;-57
2022/05/21 11:45:31;;;;;;;4.70;1.70;;;;;;;;;;5028637;28;20399;-57
2022/05/21 11:48:25;;;;;;;6.32;1.70;;;;;;;;;;5027882;28;20388;-58
2022/05/21 11:51:25;;;;;;;4.60;1.30;;;;;;;;;;5025008;28;20383;-58
2022/05/21 11:53:51;;;;;;;6.60;1.70;;;;;;;;;;4967724;28;20562;-57
2022/05/21 11:56:18;;;;;;;5.13;1.40;;;;;;;;;;4961471;28;20442;-57
2022/05/21 11:59:03;;;;;;;5.03;1.60;;;;;;;;;;5029882;28;20442;-55
2022/05/21 12:01:38;;;;;;;7.25;1.50;;;;;;;;;;5031221;28;20834;-58
2022/05/21 12:04:05;;;;;;;4.03;1.50;;;;;;;;;;5030337;28;20849;-54
2022/05/21 12:06:38;;;;;;;9.70;2.00;;;;;;;;;;5031192;28;20386;-57
2022/05/21 12:09:09;;;;;;;5.20;1.88;;;;;;;;;;5031630;28;20395;-57
2022/05/21 12:11:41;;;;;;;4.93;1.52;;;;;;;;;;5031508;28;20470;-57
2022/05/21 12:14:15;;;;;;;8.52;2.05;;;;;;;;;;5014531;28;20411;-57
2022/05/21 12:17:00;;;;;;;6.70;1.92;;;;;;;;;;5030917;28;20398;-58
2022/05/21 12:19:45;;;;;;;4.38;1.58;;;;;;;;;;5030007;28;20376;-57
2022/05/21 12:22:31;;;;;;;8.43;1.83;;;;;;;;;;5030306;28;20457;-56
2022/05/21 12:24:57;;;;;;;5.07;1.80;;;;;;;;;;5031107;28;20445;-57
2022/05/21 12:27:26;;;;;;;5.10;1.70;;;;;;;;;;5030484;28;20406;-56
2022/05/21 12:30:00;;;;;;;5.28;1.50;;;;;;;;;;5030550;28;20802;-55
2022/05/21 12:32:27;;;;;;;8.90;1.65;;;;;;;;;;5029114;28;20379;-54
2022/05/21 12:35:30;;;;;;;5.97;1.63;;;;;;;;;;5030416;28;20477;-56
2022/05/21 12:38:29;;;;;;;4.38;1.48;;;;;;;;;;4968037;28;20499;-56
2022/05/21 12:41:13;;;;;;;5.80;1.43;;;;;;;;;;4997659;28;20493;-57
2022/05/21 12:43:47;;;;;;;4.70;1.40;;;;;;;;;;5027481;28;20395;-57
2022/05/21 12:46:32;;;;;;;6.65;2.00;;;;;;;;;;5028158;28;20380;-58
2022/05/21 12:49:01;;;;;;;6.78;1.77;;;;;;;;;;5027650;28;20383;-54
2022/05/21 12:51:35;;;;;;;4.88;1.30;;;;;;;;;;5025436;28;20413;-53
2022/05/21 12:54:03;;;;;;;6.38;1.50;;;;;;;;;;5025160;28;20827;-56
2022/05/21 12:56:32;;;;;;;4.75;2.00;;;;;;;;;;5043943;28;20417;-55
2022/05/21 12:59:03;;;;;;;7.97;2.80;;;;;;;;;;5029924;28;20406;-53
2022/05/21 13:01:31;;;;;;;8.68;1.90;;;;;;;;;;5027618;28;21109;-55
2022/05/21 13:03:59;;;;;;;4.27;1.50;;;;;;;;;;5017471;28;20392;-55
2022/05/21 13:06:27;;;;;;;5.13;1.70;;;;;;;;;;5021505;28;20378;-55
2022/05/21 13:08:53;;;;;;;5.22;1.20;;;;;;;;;;5021476;28;20381;-51
2022/05/21 13:11:28;;;;;;;6.72;1.63;;;;;;;;;;5021312;28;20435;-51
2022/05/21 13:14:03;;;;;;;7.10;1.80;;;;;;;;;;5022797;28;20483;-54
2022/05/21 13:16:29;;;;;;;6.45;1.75;;;;;;;;;;5021709;28;20446;-52
2022/05/21 13:19:21;;;;;;;5.88;1.52;;;;;;;;;;5024136;28;20583;-56
2022/05/21 13:22:17;;;;;;;7.32;2.03;;;;;;;;;;5011929;28;20717;-53
2022/05/21 13:24:53;;;;;;;8.13;1.90;;;;;;;;;;5007341;28;20502;-54
2022/05/21 13:27:23;;;;;;;6.60;1.70;;;;;;;;;;5023733;28;20396;-54
2022/05/21 13:29:50;;;;;;;4.28;1.70;;;;;;;;;;5042934;28;20392;-55
2022/05/21 13:32:29;;;;;;;7.22;1.90;;;;;;;;;;5040642;28;20519;-53
2022/05/21 13:34:56;;;;;;;6.43;2.05;;;;;;;;;;5038366;28;20405;-51
2022/05/21 13:37:31;;;;;;;5.75;1.60;;;;;;;;;;5017614;28;20380;-54
2022/05/21 13:39:59;;;;;;;6.55;1.58;;;;;;;;;;5020365;28;20601;-55
2022/05/21 13:42:26;;;;;;;7.38;2.50;;;;;;;;;;5021849;28;20874;-53
2022/05/21 13:45:00;;;;;;;5.28;2.15;;;;;;;;;;5020783;28;20709;-53
2022/05/21 13:47:32;;;;;;;7.70;1.80;;;;;;;;;;5022316;28;20737;-55
2022/05/21 13:49:58;;;;;;;5.32;1.77;;;;;;;;;;5040816;28;20781;-52
2022/05/21 13:52:26;;;;;;;4.95;1.70;;;;;;;;;;5040758;28;20529;-54
2022/05/21 13:54:53;;;;;;;4.70;1.50;;;;;;;;;;5019010;28;20544;-53
2022/05/21 13:57:20;;;;;;;8.73;2.88;;;;;;;;;;5019707;28;20399;-54
2022/05/21 13:59:48;;;;;;;5.87;1.53;;;;;;;;;;5018606;28;20799;-55
2022/05/21 14:02:20;;;;;;;7.38;2.15;;;;;;;;;;5021585;28;20482;-55
2022/05/21 14:04:47;;;;;;;6.40;1.88;;;;;;;;;;5020828;28;20413;-55
2022/05/21 14:07:21;;;;;;;7.80;2.30;;;;;;;;;;5020469;28;20383;-57
2022/05/21 14:09:47;;;;;;;8.73;2.25;;;;;;;;;;5020602;28;20579;-56
2022/05/21 14:12:32;;;;;;;6.15;2.20;;;;;;;;;;5021025;28;20406;-53
2022/05/21 14:14:59;;;;;;;7.47;1.80;;;;;;;;;;5019863;28;20799;-56
2022/05/21 14:17:32;;;;;;;6.43;2.20;;;;;;;;;;5022344;28;20473;-55
2022/05/21 14:20:17;;;;;;;6.47;1.85;;;;;;;;;;5024763;28;20391;-54
2022/05/21 14:22:43;;;;;;;9.83;2.00;;;;;;;;;;5022641;28;20415;-53
2022/05/21 14:25:28;;;;;;;8.48;1.92;;;;;;;;;;5024038;28;20875;-55
2022/05/21 14:28:14;;;;;;;7.22;1.80;;;;;;;;;;5026469;28;20387;-57
2022/05/21 14:30:42;;;;;;;5.30;1.90;;;;;;;;;;5017129;28;20390;-53
2022/05/21 14:33:11;;;;;;;5.15;2.10;;;;;;;;;;5026849;28;20661;-55
2022/05/21 14:35:37;;;;;;;6.95;2.03;;;;;;;;;;5024849;28;20402;-55
2022/05/21 14:38:03;;;;;;;5.75;1.58;;;;;;;;;;5025933;28;20639;-53
2022/05/21 14:40:30;;;;;;;6.10;1.80;;;;;;;;;;5031160;28;20402;-56
2022/05/21 14:43:01;;;;;;;3.83;1.43;;;;;;;;;;5032052;28;20406;-53
2022/05/21 14:45:29;;;;;;;6.30;1.93;;;;;;;;;;5031564;28;20395;-53
2022/05/21 14:47:55;;;;;;;7.72;2.50;;;;;;;;;;5030182;28;20698;-54
2022/05/21 14:53:06;;;;;;;5.60;1.52;;;;;;;;;;5029019;28;20466;-54
2022/05/21 14:55:32;;;;;;;6.15;1.48;;;;;;;;;;5035556;28;20413;-55
2022/05/21 14:57:58;;;;;;;4.47;1.65;;;;;;;;;;5031002;28;20404;-54
2022/05/21 15:00:25;;;;;;;5.82;2.00;;;;;;;;;;5031697;28;20380;-54
2022/05/21 15:02:51;;;;;;;5.07;2.67;;;;;;;;;;5026035;28;20394;-53
2022/05/21 15:05:17;;;;;;;6.95;2.88;;;;;;;;;;5027443;28;20373;-52
2022/05/21 15:07:46;;;;;;;4.85;2.40;;;;;;;;;;5042879;28;20715;-56
2022/05/21 15:10:12;;;;;;;7.05;2.60;;;;;;;;;;5026447;28;20741;-53
2022/05/21 15:12:38;;;;;;;7.50;3.13;;;;;;;;;;5042041;28;20397;-54
2022/05/21 15:15:04;;;;;;;6.70;2.13;;;;;;;;;;5024529;28;20635;-52
2022/05/21 15:17:30;;;;;;;6.55;2.10;;;;;;;;;;5022900;28;20601;-54
2022/05/21 15:19:56;;;;;;;6.73;2.07;;;;;;;;;;5020822;28;20385;-54
2022/05/21 15:22:26;;;;;;;9.13;3.40;;;;;;;;;;5019237;28;20388;-53
2022/05/21 15:24:52;;;;;;;6.20;2.20;;;;;;;;;;5022384;28;20416;-52